sensor_id;sensor_type;location;lat;lon;timestamp;pressure;altitude;pressure_sealevel;temperature;humidity
43298;BME280;28892;55.640;37.532;2023-07-31T00:02:09;98026.31;;;18.94;53.83
43298;BME280;28892;55.640;37.532;2023-07-31T00:04:35;98032.75;;;18.93;53.95
43298;BME280;28892;55.640;37.532;2023-07-31T00:07:01;98024.69;;;18.98;53.46
43298;BME280;28892;55.640;37.532;2023-07-31T00:09:29;98029.78;;;18.90;54.21
43298;BME280;28892;55.640;37.532;2023-07-31T00:11:55;98028.69;;;18.85;54.09
43298;BME280;28892;55.640;37.532;2023-07-31T00:14:21;98035.66;;;18.71;54.51
43298;BME280;28892;55.640;37.532;2023-07-31T00:16:47;98021.13;;;18.56;55.18
43298;BME280;28892;55.640;37.532;2023-07-31T00:19:13;98033.47;;;18.57;54.97
43298;BME280;28892;55.640;37.532;2023-07-31T00:21:38;98026.22;;;18.53;54.94
43298;BME280;28892;55.640;37.532;2023-07-31T00:24:04;98034.25;;;18.58;54.93
43298;BME280;28892;55.640;37.532;2023-07-31T00:26:30;98026.47;;;18.46;55.06
43298;BME280;28892;55.640;37.532;2023-07-31T00:28:58;98027.00;;;18.48;55.21
43298;BME280;28892;55.640;37.532;2023-07-31T00:31:23;98030.22;;;18.50;54.72
43298;BME280;28892;55.640;37.532;2023-07-31T00:33:49;98030.75;;;18.47;55.16
43298;BME280;28892;55.640;37.532;2023-07-31T00:36:15;98031.28;;;18.44;55.46
43298;BME280;28892;55.640;37.532;2023-07-31T00:38:42;98035.84;;;18.38;55.36
43298;BME280;28892;55.640;37.532;2023-07-31T00:41:08;98033.16;;;18.38;55.65
43298;BME280;28892;55.640;37.532;2023-07-31T00:43:34;98022.66;;;18.37;55.73
43298;BME280;28892;55.640;37.532;2023-07-31T00:46:00;98020.25;;;18.40;55.88
43298;BME280;28892;55.640;37.532;2023-07-31T00:48:26;98026.47;;;18.46;55.82
43298;BME280;28892;55.640;37.532;2023-07-31T00:50:52;98017.81;;;18.34;56.05
43298;BME280;28892;55.640;37.532;2023-07-31T00:53:18;98023.19;;;18.39;55.88
43298;BME280;28892;55.640;37.532;2023-07-31T00:55:44;98024.81;;;18.40;55.95
43298;BME280;28892;55.640;37.532;2023-07-31T00:58:10;98016.75;;;18.35;56.06
43298;BME280;28892;55.640;37.532;2023-07-31T01:00:38;98019.41;;;18.24;56.36
43298;BME280;28892;55.640;37.532;2023-07-31T01:03:05;98012.41;;;18.23;56.04
43298;BME280;28892;55.640;37.532;2023-07-31T01:08:15;98020.50;;;18.39;56.02
43298;BME280;28892;55.640;37.532;2023-07-31T01:11:19;98019.44;;;18.40;56.09
43298;BME280;28892;55.640;37.532;2023-07-31T01:13:45;98016.19;;;18.27;56.13
43298;BME280;28892;55.640;37.532;2023-07-31T01:16:11;98023.44;;;18.27;56.30
43298;BME280;28892;55.640;37.532;2023-07-31T01:18:37;98022.66;;;18.32;56.01
43298;BME280;28892;55.640;37.532;2023-07-31T01:24:16;98024.03;;;18.45;55.84
43298;BME280;28892;55.640;37.532;2023-07-31T01:27:21;98020.75;;;18.27;56.28
43298;BME280;28892;55.640;37.532;2023-07-31T01:30:08;98009.22;;;18.32;56.25
43298;BME280;28892;55.640;37.532;2023-07-31T01:32:46;98013.72;;;18.15;56.98
43298;BME280;28892;55.640;37.532;2023-07-31T01:35:17;98008.56;;;18.09;56.58
43298;BME280;28892;55.640;37.532;2023-07-31T01:37:43;98019.03;;;18.05;56.93
43298;BME280;28892;55.640;37.532;2023-07-31T01:40:08;98022.00;;;18.09;56.88
43298;BME280;28892;55.640;37.532;2023-07-31T01:42:34;98009.41;;;18.09;56.73
43298;BME280;28892;55.640;37.532;2023-07-31T01:45:00;98015.59;;;18.10;56.45
43298;BME280;28892;55.640;37.532;2023-07-31T01:47:26;98014.22;;;18.07;56.87
43298;BME280;28892;55.640;37.532;2023-07-31T01:49:52;98011.00;;;18.10;56.79
43298;BME280;28892;55.640;37.532;2023-07-31T01:52:18;98016.38;;;18.10;56.82
43298;BME280;28892;55.640;37.532;2023-07-31T01:54:44;98008.88;;;18.12;56.74
43298;BME280;28892;55.640;37.532;2023-07-31T01:57:09;98022.81;;;18.14;56.55
43298;BME280;28892;55.640;37.532;2023-07-31T01:59:35;98022.81;;;18.14;56.58
43298;BME280;28892;55.640;37.532;2023-07-31T02:02:01;98009.94;;;18.11;55.96
43298;BME280;28892;55.640;37.532;2023-07-31T02:04:30;98010.47;;;18.13;56.05
43298;BME280;28892;55.640;37.532;2023-07-31T02:06:55;98019.31;;;18.09;56.61
43298;BME280;28892;55.640;37.532;2023-07-31T02:09:21;98017.09;;;18.00;56.83
43298;BME280;28892;55.640;37.532;2023-07-31T02:11:47;98012.00;;;17.99;56.70
43298;BME280;28892;55.640;37.532;2023-07-31T02:14:13;98026.78;;;18.01;57.03
43298;BME280;28892;55.640;37.532;2023-07-31T02:16:39;98013.94;;;18.04;57.45
43298;BME280;28892;55.640;37.532;2023-07-31T02:19:05;98019.88;;;18.16;57.95
43298;BME280;28892;55.640;37.532;2023-07-31T02:21:31;98015.88;;;18.19;57.52
43298;BME280;28892;55.640;37.532;2023-07-31T02:23:57;98018.56;;;18.24;56.65
43298;BME280;28892;55.640;37.532;2023-07-31T02:26:23;98015.94;;;18.29;56.51
43298;BME280;28892;55.640;37.532;2023-07-31T02:28:49;98020.72;;;18.22;56.24
43298;BME280;28892;55.640;37.532;2023-07-31T02:31:14;98009.72;;;18.23;56.27
43298;BME280;28892;55.640;37.532;2023-07-31T02:33:59;98021.00;;;18.25;56.18
43298;BME280;28892;55.640;37.532;2023-07-31T02:36:25;98016.72;;;18.29;55.60
43298;BME280;28892;55.640;37.532;2023-07-31T02:38:51;98025.34;;;18.32;55.80
43298;BME280;28892;55.640;37.532;2023-07-31T02:41:17;98023.47;;;18.37;55.55
43298;BME280;28892;55.640;37.532;2023-07-31T02:43:43;98020.75;;;18.27;55.74
43298;BME280;28892;55.640;37.532;2023-07-31T02:46:09;98037.16;;;18.36;55.89
43298;BME280;28892;55.640;37.532;2023-07-31T02:48:35;98024.25;;;18.33;55.70
43298;BME280;28892;55.640;37.532;2023-07-31T02:51:01;98017.53;;;18.35;55.60
43298;BME280;28892;55.640;37.532;2023-07-31T02:53:27;98020.22;;;18.35;55.84
43298;BME280;28892;55.640;37.532;2023-07-31T02:55:52;98029.34;;;18.29;56.17
43298;BME280;28892;55.640;37.532;2023-07-31T02:58:18;98019.94;;;18.21;56.21
43298;BME280;28892;55.640;37.532;2023-07-31T03:00:44;98024.22;;;18.27;56.25
43298;BME280;28892;55.640;37.532;2023-07-31T03:03:10;98022.31;;;18.23;55.96
43298;BME280;28892;55.640;37.532;2023-07-31T03:05:37;98019.66;;;18.23;56.32
43298;BME280;28892;55.640;37.532;2023-07-31T03:08:04;98025.56;;;18.25;56.47
43298;BME280;28892;55.640;37.532;2023-07-31T03:10:30;98029.06;;;18.25;56.11
43298;BME280;28892;55.640;37.532;2023-07-31T03:13:03;98024.78;;;18.29;56.24
43298;BME280;28892;55.640;37.532;2023-07-31T03:15:32;98020.22;;;18.35;55.94
43298;BME280;28892;55.640;37.532;2023-07-31T03:17:58;98017.00;;;18.28;56.58
43298;BME280;28892;55.640;37.532;2023-07-31T03:20:24;98016.75;;;18.35;56.52
43298;BME280;28892;55.640;37.532;2023-07-31T03:22:49;98007.63;;;18.36;56.16
43298;BME280;28892;55.640;37.532;2023-07-31T03:25:15;98021.88;;;18.47;55.54
43298;BME280;28892;55.640;37.532;2023-07-31T03:27:41;98007.13;;;18.49;55.22
43298;BME280;28892;55.640;37.532;2023-07-31T03:30:08;98005.53;;;18.59;55.69
43298;BME280;28892;55.640;37.532;2023-07-31T03:32:34;98006.91;;;18.61;54.88
43298;BME280;28892;55.640;37.532;2023-07-31T03:35:00;98013.63;;;18.69;55.33
43298;BME280;28892;55.640;37.532;2023-07-31T03:37:26;98008.00;;;18.70;54.77
43298;BME280;28892;55.640;37.532;2023-07-31T03:39:53;98013.66;;;18.79;54.88
43298;BME280;28892;55.640;37.532;2023-07-31T03:42:18;98012.03;;;18.83;54.48
43298;BME280;28892;55.640;37.532;2023-07-31T03:44:44;98006.69;;;18.89;54.56
43298;BME280;28892;55.640;37.532;2023-07-31T03:47:10;98006.44;;;19.01;54.31
43298;BME280;28892;55.640;37.532;2023-07-31T03:49:37;98014.53;;;19.11;54.81
43298;BME280;28892;55.640;37.532;2023-07-31T03:52:03;98015.88;;;19.19;54.25
43298;BME280;28892;55.640;37.532;2023-07-31T03:54:29;98019.38;;;19.30;54.12
43298;BME280;28892;55.640;37.532;2023-07-31T03:56:55;98003.50;;;19.28;53.73
43298;BME280;28892;55.640;37.532;2023-07-31T03:59:21;98008.63;;;19.35;53.54
43298;BME280;28892;55.640;37.532;2023-07-31T04:01:47;98011.03;;;19.36;54.10
43298;BME280;28892;55.640;37.532;2023-07-31T04:04:13;98009.41;;;19.46;53.56
43298;BME280;28892;55.640;37.532;2023-07-31T04:06:39;98024.72;;;19.45;53.82
43298;BME280;28892;55.640;37.532;2023-07-31T04:09:05;98011.84;;;19.42;53.80
43298;BME280;28892;55.640;37.532;2023-07-31T04:11:30;98015.59;;;19.41;53.84
43298;BME280;28892;55.640;37.532;2023-07-31T04:13:56;98015.91;;;19.29;53.89
43298;BME280;28892;55.640;37.532;2023-07-31T04:16:22;98031.19;;;19.29;53.72
43298;BME280;28892;55.640;37.532;2023-07-31T04:18:48;98030.13;;;19.24;53.32
43298;BME280;28892;55.640;37.532;2023-07-31T04:21:13;98046.53;;;19.38;54.01
43298;BME280;28892;55.640;37.532;2023-07-31T04:23:39;98036.84;;;19.37;54.94
43298;BME280;28892;55.640;37.532;2023-07-31T04:26:05;98037.38;;;19.65;53.83
43298;BME280;28892;55.640;37.532;2023-07-31T04:28:31;98023.13;;;19.60;53.52
43298;BME280;28892;55.640;37.532;2023-07-31T04:30:57;98033.34;;;19.63;54.04
43298;BME280;28892;55.640;37.532;2023-07-31T04:33:23;98023.91;;;19.60;53.52
43298;BME280;28892;55.640;37.532;2023-07-31T04:35:52;98032.78;;;19.71;53.87
43298;BME280;28892;55.640;37.532;2023-07-31T04:38:20;98029.81;;;19.78;53.36
43298;BME280;28892;55.640;37.532;2023-07-31T04:40:46;98033.03;;;20.06;53.26
43298;BME280;28892;55.640;37.532;2023-07-31T04:43:18;98042.09;;;20.31;52.09
43298;BME280;28892;55.640;37.532;2023-07-31T04:45:46;98030.72;;;20.49;51.95
43298;BME280;28892;55.640;37.532;2023-07-31T04:48:14;98035.78;;;20.56;51.45
43298;BME280;28892;55.640;37.532;2023-07-31T04:50:40;98043.53;;;20.73;51.27
43298;BME280;28892;55.640;37.532;2023-07-31T04:53:06;98037.75;;;20.96;51.39
43298;BME280;28892;55.640;37.532;2023-07-31T04:55:31;98039.72;;;21.25;50.11
43298;BME280;28892;55.640;37.532;2023-07-31T04:57:59;98044.97;;;21.40;49.83
43298;BME280;28892;55.640;37.532;2023-07-31T05:00:25;98041.66;;;21.48;49.57
43298;BME280;28892;55.640;37.532;2023-07-31T05:02:51;98036.78;;;21.50;49.47
43298;BME280;28892;55.640;37.532;2023-07-31T05:05:16;98039.19;;;21.57;48.90
43298;BME280;28892;55.640;37.532;2023-07-31T05:07:42;98030.97;;;21.73;48.48
43298;BME280;28892;55.640;37.532;2023-07-31T05:10:08;98044.88;;;21.85;48.16
43298;BME280;28892;55.640;37.532;2023-07-31T05:12:38;98054.38;;;22.07;47.87
43298;BME280;28892;55.640;37.532;2023-07-31T05:15:04;98043.81;;;22.11;47.57
43298;BME280;28892;55.640;37.532;2023-07-31T05:17:30;98043.09;;;22.24;47.60
43298;BME280;28892;55.640;37.532;2023-07-31T05:19:57;98045.06;;;22.43;47.34
43298;BME280;28892;55.640;37.532;2023-07-31T05:22:29;98035.84;;;22.49;46.98
43298;BME280;28892;55.640;37.532;2023-07-31T05:25:24;98047.44;;;22.50;47.11
43298;BME280;28892;55.640;37.532;2023-07-31T05:27:50;98047.44;;;22.50;46.79
43298;BME280;28892;55.640;37.532;2023-07-31T05:30:18;98044.69;;;22.55;46.85
43298;BME280;28892;55.640;37.532;2023-07-31T05:32:44;98048.63;;;22.63;46.21
43298;BME280;28892;55.640;37.532;2023-07-31T05:35:10;98045.56;;;22.69;46.37
43298;BME280;28892;55.640;37.532;2023-07-31T05:37:36;98047.28;;;22.60;46.11
43298;BME280;28892;55.640;37.532;2023-07-31T05:40:03;98043.44;;;22.66;46.60
43298;BME280;28892;55.640;37.532;2023-07-31T05:42:29;98043.81;;;22.79;46.74
43298;BME280;28892;55.640;37.532;2023-07-31T05:44:55;98044.31;;;22.81;45.96
43298;BME280;28892;55.640;37.532;2023-07-31T05:47:21;98049.94;;;23.03;45.81
43298;BME280;28892;55.640;37.532;2023-07-31T05:49:48;98051.53;;;23.05;45.44
43298;BME280;28892;55.640;37.532;2023-07-31T05:52:27;98062.03;;;23.30;44.95
43298;BME280;28892;55.640;37.532;2023-07-31T05:54:54;98067.91;;;23.52;44.13
43298;BME280;28892;55.640;37.532;2023-07-31T05:57:20;98049.22;;;23.36;44.25
43298;BME280;28892;55.640;37.532;2023-07-31T06:00:00;98061.03;;;23.74;43.68
43298;BME280;28892;55.640;37.532;2023-07-31T06:10:13;98047.03;;;23.99;43.09
43298;BME280;28892;55.640;37.532;2023-07-31T06:13:37;98053.50;;;24.18;42.58
43298;BME280;28892;55.640;37.532;2023-07-31T06:19:39;98058.66;;;24.00;41.85
43298;BME280;28892;55.640;37.532;2023-07-31T06:22:24;98051.09;;;24.30;41.15
43298;BME280;28892;55.640;37.532;2023-07-31T06:25:26;98059.41;;;24.20;40.90
43298;BME280;28892;55.640;37.532;2023-07-31T06:28:04;98062.28;;;23.95;41.18
43298;BME280;28892;55.640;37.532;2023-07-31T06:34:47;98062.63;;;24.36;41.28
43298;BME280;28892;55.640;37.532;2023-07-31T06:37:16;98061.13;;;24.30;41.53
43298;BME280;28892;55.640;37.532;2023-07-31T06:39:45;98061.03;;;24.35;41.25
43298;BME280;28892;55.640;37.532;2023-07-31T06:42:21;98064.41;;;24.54;41.07
43298;BME280;28892;55.640;37.532;2023-07-31T06:45:09;98069.16;;;25.00;40.39
43298;BME280;28892;55.640;37.532;2023-07-31T06:48:12;98070.41;;;25.53;39.91
43298;BME280;28892;55.640;37.532;2023-07-31T06:50:40;98066.72;;;25.80;39.53
43298;BME280;28892;55.640;37.532;2023-07-31T06:53:12;98070.09;;;26.18;39.99
43298;BME280;28892;55.640;37.532;2023-07-31T06:56:42;98070.19;;;26.04;38.74
43298;BME280;28892;55.640;37.532;2023-07-31T06:58:51;98078.19;;;26.41;40.09
43298;BME280;28892;55.640;37.532;2023-07-31T07:01:17;98067.63;;;26.39;37.82
43298;BME280;28892;55.640;37.532;2023-07-31T07:03:48;98063.47;;;26.42;37.79
43298;BME280;28892;55.640;37.532;2023-07-31T07:06:19;98065.34;;;26.24;38.08
43298;BME280;28892;55.640;37.532;2023-07-31T07:08:45;98066.59;;;25.86;37.91
43298;BME280;28892;55.640;37.532;2023-07-31T07:11:11;98069.47;;;26.21;37.84
43298;BME280;28892;55.640;37.532;2023-07-31T07:13:37;98068.72;;;26.29;36.66
43298;BME280;28892;55.640;37.532;2023-07-31T07:16:23;98072.44;;;26.11;36.60
43298;BME280;28892;55.640;37.532;2023-07-31T07:18:49;98066.13;;;25.61;37.62
43298;BME280;28892;55.640;37.532;2023-07-31T07:21:15;98064.06;;;25.58;37.24
43298;BME280;28892;55.640;37.532;2023-07-31T07:23:43;98067.34;;;25.77;38.36
43298;BME280;28892;55.640;37.532;2023-07-31T07:26:11;98079.31;;;26.08;36.86
43298;BME280;28892;55.640;37.532;2023-07-31T07:28:37;98077.53;;;26.35;37.51
43298;BME280;28892;55.640;37.532;2023-07-31T07:31:03;98075.25;;;26.28;36.81
43298;BME280;28892;55.640;37.532;2023-07-31T07:33:29;98070.66;;;26.38;37.13
43298;BME280;28892;55.640;37.532;2023-07-31T07:36:01;98075.47;;;26.41;35.22
43298;BME280;28892;55.640;37.532;2023-07-31T07:38:30;98070.00;;;26.32;35.10
43298;BME280;28892;55.640;37.532;2023-07-31T07:40:56;98068.47;;;26.17;35.02
43298;BME280;28892;55.640;37.532;2023-07-31T07:43:25;98077.22;;;26.05;36.30
43298;BME280;28892;55.640;37.532;2023-07-31T07:45:51;98074.59;;;26.22;34.28
43298;BME280;28892;55.640;37.532;2023-07-31T07:48:19;98076.06;;;26.29;34.45
43298;BME280;28892;55.640;37.532;2023-07-31T07:50:45;98083.03;;;26.53;35.37
43298;BME280;28892;55.640;37.532;2023-07-31T07:53:14;98065.59;;;26.62;34.59
43298;BME280;28892;55.640;37.532;2023-07-31T07:55:40;98073.94;;;26.66;34.32
43298;BME280;28892;55.640;37.532;2023-07-31T07:58:08;98075.88;;;26.74;34.89
43298;BME280;28892;55.640;37.532;2023-07-31T08:00:36;98080.09;;;27.16;34.80
43298;BME280;28892;55.640;37.532;2023-07-31T08:03:02;98086.00;;;27.27;33.46
43298;BME280;28892;55.640;37.532;2023-07-31T08:05:28;98082.16;;;26.92;34.93
43298;BME280;28892;55.640;37.532;2023-07-31T08:08:15;98077.16;;;26.86;33.58
43298;BME280;28892;55.640;37.532;2023-07-31T08:11:04;98081.16;;;27.41;35.25
43298;BME280;28892;55.640;37.532;2023-07-31T08:13:30;98083.09;;;27.50;34.68
43298;BME280;28892;55.640;37.532;2023-07-31T08:15:56;98084.22;;;27.40;34.12
43298;BME280;28892;55.640;37.532;2023-07-31T08:18:22;98083.41;;;27.66;34.92
43298;BME280;28892;55.640;37.532;2023-07-31T08:20:48;98084.00;;;27.89;34.35
43298;BME280;28892;55.640;37.532;2023-07-31T08:23:25;98079.72;;;27.44;32.33
43298;BME280;28892;55.640;37.532;2023-07-31T08:25:53;98074.47;;;27.30;31.82
43298;BME280;28892;55.640;37.532;2023-07-31T08:28:30;98067.56;;;27.59;32.08
43298;BME280;28892;55.640;37.532;2023-07-31T08:30:56;98081.00;;;26.85;34.30
43298;BME280;28892;55.640;37.532;2023-07-31T08:33:24;98074.31;;;27.17;33.43
43298;BME280;28892;55.640;37.532;2023-07-31T08:39:12;98090.94;;;27.51;33.34
43298;BME280;28892;55.640;37.532;2023-07-31T08:41:39;98081.81;;;28.12;33.05
43298;BME280;28892;55.640;37.532;2023-07-31T08:44:06;98083.31;;;28.70;31.71
43298;BME280;28892;55.640;37.532;2023-07-31T08:46:33;98081.09;;;28.72;31.26
43298;BME280;28892;55.640;37.532;2023-07-31T08:49:00;98093.78;;;28.68;31.64
43298;BME280;28892;55.640;37.532;2023-07-31T08:51:29;98087.78;;;29.05;31.10
43298;BME280;28892;55.640;37.532;2023-07-31T08:53:58;98087.19;;;28.39;31.56
43298;BME280;28892;55.640;37.532;2023-07-31T08:57:00;98082.56;;;28.91;30.53
43298;BME280;28892;55.640;37.532;2023-07-31T08:59:37;98084.31;;;27.87;32.84
43298;BME280;28892;55.640;37.532;2023-07-31T09:02:05;98092.78;;;28.72;30.47
43298;BME280;28892;55.640;37.532;2023-07-31T09:04:41;98087.41;;;28.55;30.41
43298;BME280;28892;55.640;37.532;2023-07-31T09:07:07;98080.22;;;28.50;30.65
43298;BME280;28892;55.640;37.532;2023-07-31T09:09:37;98091.19;;;28.71;31.46
43298;BME280;28892;55.640;37.532;2023-07-31T09:12:07;98086.66;;;28.76;31.22
43298;BME280;28892;55.640;37.532;2023-07-31T09:17:35;98083.53;;;28.65;31.59
43298;BME280;28892;55.640;37.532;2023-07-31T09:20:23;98092.84;;;28.34;31.33
43298;BME280;28892;55.640;37.532;2023-07-31T09:22:49;98087.78;;;28.06;33.20
43298;BME280;28892;55.640;37.532;2023-07-31T09:28:54;98085.97;;;27.71;34.19
43298;BME280;28892;55.640;37.532;2023-07-31T09:31:39;98093.97;;;27.76;33.94
43298;BME280;28892;55.640;37.532;2023-07-31T09:34:13;98082.56;;;28.61;33.35
43298;BME280;28892;55.640;37.532;2023-07-31T09:37:01;98084.91;;;29.22;31.96
43298;BME280;28892;55.640;37.532;2023-07-31T09:39:47;98090.50;;;28.75;32.94
43298;BME280;28892;55.640;37.532;2023-07-31T09:42:24;98090.50;;;28.14;32.03
43298;BME280;28892;55.640;37.532;2023-07-31T09:44:50;98089.03;;;27.60;33.24
43298;BME280;28892;55.640;37.532;2023-07-31T09:47:26;98095.28;;;27.17;34.03
43298;BME280;28892;55.640;37.532;2023-07-31T09:49:55;98081.84;;;26.94;35.36
43298;BME280;28892;55.640;37.532;2023-07-31T09:52:21;98079.72;;;26.73;35.43
43298;BME280;28892;55.640;37.532;2023-07-31T09:55:29;98093.34;;;27.17;34.78
43298;BME280;28892;55.640;37.532;2023-07-31T09:58:25;98100.06;;;27.46;35.04
43298;BME280;28892;55.640;37.532;2023-07-31T10:00:54;98089.84;;;27.17;34.48
43298;BME280;28892;55.640;37.532;2023-07-31T10:03:23;98099.28;;;27.64;33.48
43298;BME280;28892;55.640;37.532;2023-07-31T10:05:50;98088.88;;;28.22;33.02
43298;BME280;28892;55.640;37.532;2023-07-31T10:08:18;98087.47;;;28.76;31.78
43298;BME280;28892;55.640;37.532;2023-07-31T10:10:46;98087.19;;;28.69;32.57
43298;BME280;28892;55.640;37.532;2023-07-31T10:13:12;98081.00;;;29.11;33.11
43298;BME280;28892;55.640;37.532;2023-07-31T10:15:40;98088.91;;;29.46;31.13
43298;BME280;28892;55.640;37.532;2023-07-31T10:18:08;98085.94;;;29.51;30.28
43298;BME280;28892;55.640;37.532;2023-07-31T10:20:35;98093.56;;;28.82;31.22
43298;BME280;28892;55.640;37.532;2023-07-31T10:23:02;98090.56;;;29.17;30.83
43298;BME280;28892;55.640;37.532;2023-07-31T10:25:29;98082.00;;;29.06;30.26
43298;BME280;28892;55.640;37.532;2023-07-31T10:27:57;98084.81;;;27.81;31.16
43298;BME280;28892;55.640;37.532;2023-07-31T10:30:29;98102.19;;;27.32;32.68
43298;BME280;28892;55.640;37.532;2023-07-31T10:32:55;98099.75;;;27.13;32.19
43298;BME280;28892;55.640;37.532;2023-07-31T10:35:27;98100.88;;;27.03;32.64
43298;BME280;28892;55.640;37.532;2023-07-31T10:37:53;98100.66;;;26.73;33.90
43298;BME280;28892;55.640;37.532;2023-07-31T10:40:26;98094.72;;;26.62;33.77
43298;BME280;28892;55.640;37.532;2023-07-31T10:42:57;98096.38;;;26.31;34.05
43298;BME280;28892;55.640;37.532;2023-07-31T10:45:37;98096.97;;;26.19;34.60
43298;BME280;28892;55.640;37.532;2023-07-31T10:48:05;98093.47;;;25.96;34.87
43298;BME280;28892;55.640;37.532;2023-07-31T10:50:33;98097.09;;;25.83;35.51
43298;BME280;28892;55.640;37.532;2023-07-31T10:53:02;98084.00;;;25.85;35.17
43298;BME280;28892;55.640;37.532;2023-07-31T10:55:42;98092.84;;;25.99;35.00
43298;BME280;28892;55.640;37.532;2023-07-31T10:58:11;98098.50;;;25.80;35.60
43298;BME280;28892;55.640;37.532;2023-07-31T11:00:42;98085.25;;;25.56;35.70
43298;BME280;28892;55.640;37.532;2023-07-31T11:03:19;98091.97;;;25.58;36.44
43298;BME280;28892;55.640;37.532;2023-07-31T11:10:46;98101.91;;;25.40;36.69
43298;BME280;28892;55.640;37.532;2023-07-31T11:13:13;98091.34;;;25.38;37.20
43298;BME280;28892;55.640;37.532;2023-07-31T11:15:44;98099.94;;;25.55;36.81
43298;BME280;28892;55.640;37.532;2023-07-31T11:18:10;98085.88;;;25.52;38.24
43298;BME280;28892;55.640;37.532;2023-07-31T11:20:38;98090.00;;;26.04;37.97
43298;BME280;28892;55.640;37.532;2023-07-31T11:23:09;98088.94;;;26.46;35.91
43298;BME280;28892;55.640;37.532;2023-07-31T11:25:37;98081.38;;;26.43;36.26
43298;BME280;28892;55.640;37.532;2023-07-31T11:28:08;98084.75;;;26.48;35.99
43298;BME280;28892;55.640;37.532;2023-07-31T11:30:35;98080.69;;;26.28;35.99
43298;BME280;28892;55.640;37.532;2023-07-31T11:33:02;98077.19;;;25.96;37.01
43298;BME280;28892;55.640;37.532;2023-07-31T11:35:36;98076.06;;;25.97;36.87
43298;BME280;28892;55.640;37.532;2023-07-31T11:38:07;98083.19;;;25.84;36.88
43298;BME280;28892;55.640;37.532;2023-07-31T11:40:42;98072.44;;;25.70;37.47
43298;BME280;28892;55.640;37.532;2023-07-31T11:43:08;98075.41;;;26.23;36.63
43298;BME280;28892;55.640;37.532;2023-07-31T11:45:34;98083.28;;;26.91;36.55
43298;BME280;28892;55.640;37.532;2023-07-31T11:48:01;98088.88;;;27.39;34.96
43298;BME280;28892;55.640;37.532;2023-07-31T11:50:27;98079.09;;;27.47;35.46
43298;BME280;28892;55.640;37.532;2023-07-31T11:52:57;98068.69;;;27.49;35.44
43298;BME280;28892;55.640;37.532;2023-07-31T11:55:25;98081.97;;;27.42;34.29
43298;BME280;28892;55.640;37.532;2023-07-31T11:57:52;98094.13;;;27.53;34.57
43298;BME280;28892;55.640;37.532;2023-07-31T12:00:19;98082.00;;;27.59;34.54
43298;BME280;28892;55.640;37.532;2023-07-31T12:02:45;98080.41;;;27.58;34.21
43298;BME280;28892;55.640;37.532;2023-07-31T12:05:14;98078.16;;;27.60;34.15
43298;BME280;28892;55.640;37.532;2023-07-31T12:07:51;98063.25;;;27.58;34.17
43298;BME280;28892;55.640;37.532;2023-07-31T12:10:31;98086.13;;;27.66;34.41
43298;BME280;28892;55.640;37.532;2023-07-31T12:13:04;98099.59;;;27.44;34.10
43298;BME280;28892;55.640;37.532;2023-07-31T12:18:03;98093.66;;;27.69;33.21
43298;BME280;28892;55.640;37.532;2023-07-31T12:20:34;98098.56;;;28.02;33.53
43298;BME280;28892;55.640;37.532;2023-07-31T12:23:01;98092.13;;;27.98;34.27
43298;BME280;28892;55.640;37.532;2023-07-31T12:25:29;98097.13;;;27.96;34.98
43298;BME280;28892;55.640;37.532;2023-07-31T12:27:56;98088.59;;;28.06;33.89
43298;BME280;28892;55.640;37.532;2023-07-31T12:30:29;98091.47;;;28.19;33.60
43298;BME280;28892;55.640;37.532;2023-07-31T12:32:55;98093.50;;;27.30;34.58
43298;BME280;28892;55.640;37.532;2023-07-31T12:35:21;98094.66;;;27.20;34.25
43298;BME280;28892;55.640;37.532;2023-07-31T12:37:47;98108.56;;;27.18;34.15
43298;BME280;28892;55.640;37.532;2023-07-31T12:40:12;98095.38;;;26.85;34.71
43298;BME280;28892;55.640;37.532;2023-07-31T12:42:38;98095.59;;;26.31;36.22
43298;BME280;28892;55.640;37.532;2023-07-31T12:45:04;98088.94;;;26.14;35.61
43298;BME280;28892;55.640;37.532;2023-07-31T12:47:30;98098.81;;;26.10;36.15
43298;BME280;28892;55.640;37.532;2023-07-31T12:49:56;98096.28;;;25.82;36.28
43298;BME280;28892;55.640;37.532;2023-07-31T12:52:22;98086.44;;;25.63;35.85
43298;BME280;28892;55.640;37.532;2023-07-31T12:54:48;98090.69;;;25.56;36.75
43298;BME280;28892;55.640;37.532;2023-07-31T12:57:14;98084.19;;;25.43;36.88
43298;BME280;28892;55.640;37.532;2023-07-31T12:59:40;98087.00;;;25.51;37.29
43298;BME280;28892;55.640;37.532;2023-07-31T13:02:05;98090.81;;;25.50;36.83
43298;BME280;28892;55.640;37.532;2023-07-31T13:04:31;98082.94;;;25.49;36.80
43298;BME280;28892;55.640;37.532;2023-07-31T13:06:57;98097.91;;;25.60;37.00
43298;BME280;28892;55.640;37.532;2023-07-31T13:09:23;98097.47;;;25.67;36.66
43298;BME280;28892;55.640;37.532;2023-07-31T13:11:49;98104.88;;;25.75;36.95
43298;BME280;28892;55.640;37.532;2023-07-31T13:14:16;98093.44;;;25.87;36.55
43298;BME280;28892;55.640;37.532;2023-07-31T13:16:45;98097.34;;;26.04;37.19
43298;BME280;28892;55.640;37.532;2023-07-31T13:19:10;98098.88;;;25.87;38.02
43298;BME280;28892;55.640;37.532;2023-07-31T13:21:36;98094.34;;;26.14;37.76
43298;BME280;28892;55.640;37.532;2023-07-31T13:24:02;98103.59;;;26.04;38.02
43298;BME280;28892;55.640;37.532;2023-07-31T13:26:29;98094.28;;;25.97;37.15
43298;BME280;28892;55.640;37.532;2023-07-31T13:28:55;98098.88;;;25.87;37.60
43298;BME280;28892;55.640;37.532;2023-07-31T13:31:21;98094.66;;;25.49;37.92
43298;BME280;28892;55.640;37.532;2023-07-31T13:33:47;98101.69;;;25.50;38.25
43298;BME280;28892;55.640;37.532;2023-07-31T13:36:13;98092.09;;;25.76;37.52
43298;BME280;28892;55.640;37.532;2023-07-31T13:38:39;98112.53;;;25.73;37.46
43298;BME280;28892;55.640;37.532;2023-07-31T13:41:05;98103.53;;;25.64;37.85